createdAt,value
2023-02-26T00:01:27.962Z,93.20
2023-02-26T00:03:58.132Z,93.10
2023-02-26T00:06:26.405Z,92.70
2023-02-26T00:08:54.442Z,92.70
2023-02-26T00:11:22.540Z,92.90
2023-02-26T00:13:50.440Z,92.80
2023-02-26T00:16:31.242Z,92.60
2023-02-26T00:19:00.364Z,92.30
2023-02-26T00:21:28.832Z,92.20
2023-02-26T00:23:56.458Z,92.20
2023-02-26T00:26:26.010Z,92.20
2023-02-26T00:28:54.025Z,92.30
2023-02-26T00:31:25.090Z,92.50
2023-02-26T00:33:56.881Z,92.00
2023-02-26T00:36:40.040Z,92.00
2023-02-26T00:39:48.909Z,92.00
2023-02-26T00:42:16.301Z,92.10
2023-02-26T00:44:43.971Z,92.10
2023-02-26T00:47:33.696Z,92.00
2023-02-26T00:50:20.414Z,91.90
2023-02-26T00:53:10.443Z,91.90
2023-02-26T00:55:38.523Z,92.10
2023-02-26T00:58:05.485Z,92.40
2023-02-26T01:00:32.768Z,92.30
2023-02-26T01:03:00.444Z,92.70
2023-02-26T01:05:28.215Z,92.20
2023-02-26T01:08:07.202Z,92.10
2023-02-26T01:10:34.886Z,92.40
2023-02-26T01:13:02.448Z,91.70
2023-02-26T01:15:29.681Z,91.80
2023-02-26T01:18:05.959Z,91.30
2023-02-26T01:20:54.449Z,91.30
2023-02-26T01:23:35.483Z,91.60
2023-02-26T01:26:10.620Z,91.50
2023-02-26T01:28:38.202Z,91.70
2023-02-26T01:31:16.823Z,91.50
2023-02-26T01:33:56.864Z,91.50
2023-02-26T01:36:28.336Z,91.20
2023-02-26T01:39:08.206Z,91.60
2023-02-26T01:41:55.410Z,91.20
2023-02-26T01:44:48.729Z,91.20
2023-02-26T01:47:39.529Z,91.40
2023-02-26T01:50:19.105Z,91.30
2023-02-26T01:52:49.100Z,91.10
2023-02-26T01:55:19.516Z,91.00
2023-02-26T01:57:47.099Z,91.00
2023-02-26T02:00:15.965Z,91.30
2023-02-26T02:02:43.245Z,90.80
2023-02-26T02:05:27.623Z,90.80
2023-02-26T02:07:56.972Z,91.00
2023-02-26T02:10:23.971Z,90.60
2023-02-26T02:13:02.568Z,90.60
2023-02-26T02:15:35.846Z,90.50
2023-02-26T02:18:31.972Z,90.20
2023-02-26T02:21:26.518Z,90.20
2023-02-26T02:24:13.317Z,90.00
2023-02-26T02:26:59.716Z,89.00
2023-02-26T02:29:38.365Z,88.70
2023-02-26T02:32:22.904Z,88.10
2023-02-26T02:35:01.001Z,88.70
2023-02-26T02:37:36.640Z,88.10
2023-02-26T02:40:06.548Z,87.80
2023-02-26T02:43:03.879Z,87.50
2023-02-26T02:45:54.807Z,88.00
2023-02-26T02:48:29.588Z,88.00
2023-02-26T02:51:14.962Z,88.50
2023-02-26T02:53:42.002Z,87.20
2023-02-26T02:56:25.024Z,87.30
2023-02-26T02:59:03.424Z,87.00
2023-02-26T03:01:34.601Z,86.60
2023-02-26T03:04:13.963Z,86.00
2023-02-26T03:06:42.061Z,86.10
2023-02-26T03:09:10.801Z,85.70
2023-02-26T03:11:38.280Z,86.70
2023-02-26T03:14:06.402Z,87.20
2023-02-26T03:17:01.520Z,86.90
2023-02-26T03:20:14.290Z,85.60
2023-02-26T03:23:12.323Z,85.80
2023-02-26T03:25:51.524Z,86.10
2023-02-26T03:28:45.086Z,85.30
2023-02-26T03:31:21.163Z,84.90
2023-02-26T03:34:01.931Z,84.80
2023-02-26T03:36:47.407Z,84.80
2023-02-26T03:39:28.292Z,84.50
2023-02-26T03:42:13.416Z,84.40
2023-02-26T03:44:56.945Z,84.00
2023-02-26T03:47:25.342Z,83.90
2023-02-26T03:50:14.691Z,83.40
2023-02-26T03:52:45.412Z,83.40
2023-02-26T03:55:24.271Z,84.10
2023-02-26T03:57:51.410Z,84.10
2023-02-26T04:00:20.031Z,83.60
2023-02-26T04:03:08.445Z,83.40
2023-02-26T04:05:43.277Z,83.30
2023-02-26T04:08:10.734Z,83.40
2023-02-26T04:10:51.894Z,84.00
2023-02-26T04:13:18.965Z,84.00
2023-02-26T04:15:45.928Z,84.00
2023-02-26T04:18:15.968Z,83.70
2023-02-26T04:20:43.009Z,83.40
2023-02-26T04:23:10.047Z,83.50
2023-02-26T04:25:37.128Z,82.30
2023-02-26T04:28:04.667Z,82.10
2023-02-26T04:30:31.739Z,82.20
2023-02-26T04:32:58.933Z,80.80
2023-02-26T04:35:26.005Z,80.70
2023-02-26T04:37:52.968Z,81.20
2023-02-26T04:40:20.164Z,81.00
2023-02-26T04:42:47.717Z,80.90
2023-02-26T04:45:14.722Z,80.80
2023-02-26T04:47:41.684Z,80.80
2023-02-26T04:50:09.881Z,80.90
2023-02-26T04:52:36.848Z,80.40
2023-02-26T04:55:04.254Z,80.80
2023-02-26T04:57:31.161Z,80.00
2023-02-26T04:59:58.201Z,80.20
2023-02-26T05:02:25.813Z,80.60
2023-02-26T05:04:53.089Z,80.30
2023-02-26T05:07:20.203Z,80.60
2023-02-26T05:09:49.345Z,80.80
2023-02-26T05:12:16.449Z,80.90
2023-02-26T05:14:43.410Z,80.60
2023-02-26T05:17:10.484Z,79.50
2023-02-26T05:19:37.485Z,80.70
2023-02-26T05:22:04.454Z,81.20
2023-02-26T05:24:31.448Z,81.10
2023-02-26T05:26:58.445Z,81.20
2023-02-26T05:29:26.008Z,81.00
2023-02-26T05:31:53.021Z,81.00
2023-02-26T05:34:20.366Z,82.10
2023-02-26T05:36:47.346Z,82.90
2023-02-26T05:39:14.328Z,82.70
2023-02-26T05:41:41.407Z,83.10
2023-02-26T05:44:09.256Z,82.30
2023-02-26T05:46:36.284Z,82.70
2023-02-26T05:49:03.403Z,82.90
2023-02-26T05:51:30.526Z,82.60
2023-02-26T05:53:57.493Z,82.50
2023-02-26T05:56:24.731Z,83.00
2023-02-26T05:58:51.921Z,82.90
2023-02-26T06:01:18.888Z,81.50
2023-02-26T06:03:45.927Z,81.50
2023-02-26T06:06:16.208Z,81.80
2023-02-26T06:08:43.245Z,81.20
2023-02-26T06:11:10.371Z,82.00
2023-02-26T06:13:37.327Z,81.00
2023-02-26T06:16:04.595Z,81.10
2023-02-26T06:18:33.561Z,81.40
2023-02-26T06:21:02.179Z,81.80
2023-02-26T06:23:29.215Z,82.00
2023-02-26T06:25:56.201Z,81.70
2023-02-26T06:28:24.656Z,80.80
2023-02-26T06:30:53.372Z,80.30
2023-02-26T06:33:20.692Z,80.20
2023-02-26T06:35:47.767Z,78.40
2023-02-26T06:38:15.086Z,78.50
2023-02-26T06:40:42.332Z,78.70
2023-02-26T06:43:09.593Z,78.90
2023-02-26T06:45:36.850Z,78.70
2023-02-26T06:48:04.489Z,78.20
2023-02-26T06:50:31.782Z,76.80
2023-02-26T06:52:58.933Z,77.20
2023-02-26T06:55:27.182Z,76.10
2023-02-26T06:57:55.493Z,76.70
2023-02-26T07:00:23.934Z,75.60
2023-02-26T07:02:52.296Z,76.80
2023-02-26T07:05:19.650Z,76.50
2023-02-26T07:07:46.758Z,76.20
2023-02-26T07:10:14.367Z,77.00
2023-02-26T07:12:41.428Z,76.10
2023-02-26T07:15:09.148Z,75.60
2023-02-26T07:17:36.110Z,75.50
2023-02-26T07:20:06.856Z,76.00
2023-02-26T07:22:34.485Z,75.00
2023-02-26T07:25:02.848Z,75.30
2023-02-26T07:27:30.289Z,75.80
2023-02-26T07:29:57.291Z,76.10
2023-02-26T07:32:24.336Z,75.40
2023-02-26T07:34:51.670Z,73.70
2023-02-26T07:37:19.171Z,72.20
2023-02-26T07:39:46.372Z,72.40
2023-02-26T07:42:13.466Z,73.80
2023-02-26T07:44:40.520Z,72.10
2023-02-26T07:47:07.443Z,73.00
2023-02-26T07:49:34.592Z,71.60
2023-02-26T07:52:02.722Z,72.70
2023-02-26T07:54:29.891Z,73.10
2023-02-26T07:56:56.885Z,72.70
2023-02-26T07:59:23.838Z,72.30
2023-02-26T08:01:53.538Z,73.50
2023-02-26T08:04:20.611Z,72.80
2023-02-26T08:06:48.052Z,70.60
2023-02-26T08:09:15.216Z,71.80
2023-02-26T08:11:43.392Z,72.20
2023-02-26T08:14:12.177Z,72.20
2023-02-26T08:16:39.163Z,70.30
2023-02-26T08:19:06.604Z,71.40
2023-02-26T08:21:34.039Z,70.90
2023-02-26T08:24:01.606Z,70.60
2023-02-26T08:26:28.862Z,70.70
2023-02-26T08:28:55.983Z,71.60
2023-02-26T08:31:23.128Z,71.10
2023-02-26T08:33:50.222Z,71.30
2023-02-26T08:36:17.204Z,71.20
2023-02-26T08:38:44.204Z,72.00
2023-02-26T08:41:11.240Z,72.80
2023-02-26T08:43:38.323Z,73.60
2023-02-26T08:46:05.969Z,74.50
2023-02-26T08:48:33.321Z,74.90
2023-02-26T08:51:01.333Z,75.00
2023-02-26T08:53:28.276Z,74.80
2023-02-26T08:55:55.311Z,75.10
2023-02-26T08:58:22.382Z,74.30
2023-02-26T09:00:49.729Z,72.90
2023-02-26T09:03:16.760Z,72.90
2023-02-26T09:05:43.922Z,73.80
2023-02-26T09:08:11.908Z,73.10
2023-02-26T09:10:40.990Z,73.40
2023-02-26T09:13:08.763Z,72.70
2023-02-26T09:15:35.862Z,71.90
2023-02-26T09:18:02.804Z,72.10
2023-02-26T09:20:30.006Z,72.30
2023-02-26T09:22:57.007Z,71.50
2023-02-26T09:25:24.298Z,72.30
2023-02-26T09:27:51.489Z,72.80
2023-02-26T09:30:18.843Z,71.50
2023-02-26T09:32:45.949Z,71.40
2023-02-26T09:35:13.096Z,72.00
2023-02-26T09:37:40.334Z,70.90
2023-02-26T09:40:08.851Z,71.10
2023-02-26T09:43:08.215Z,71.70
2023-02-26T09:45:38.660Z,72.60
2023-02-26T09:48:07.747Z,72.20
2023-02-26T09:50:48.763Z,71.40
2023-02-26T09:53:40.673Z,71.60
2023-02-26T09:56:16.365Z,72.90
2023-02-26T09:58:44.777Z,72.10
2023-02-26T10:01:27.835Z,72.50
2023-02-26T10:04:02.256Z,70.70
2023-02-26T10:06:35.766Z,73.00
2023-02-26T10:09:33.543Z,70.40
2023-02-26T10:12:14.466Z,71.90
2023-02-26T10:15:13.480Z,69.80
2023-02-26T10:18:04.906Z,71.80
2023-02-26T10:20:39.939Z,69.90
2023-02-26T10:23:18.255Z,68.50
2023-02-26T10:25:51.049Z,69.60
2023-02-26T10:28:18.528Z,70.80
2023-02-26T10:30:55.965Z,68.10
2023-02-26T10:33:41.111Z,67.40
2023-02-26T10:36:27.898Z,64.80
2023-02-26T10:39:12.603Z,67.10
2023-02-26T10:41:39.916Z,67.20
2023-02-26T10:44:18.604Z,65.90
2023-02-26T10:47:02.001Z,67.00
2023-02-26T10:49:51.179Z,65.70
2023-02-26T10:52:21.433Z,67.40
2023-02-26T10:55:05.999Z,64.00
2023-02-26T10:57:37.566Z,65.40
2023-02-26T11:00:07.118Z,67.20
2023-02-26T11:02:44.542Z,65.50
2023-02-26T11:05:22.203Z,65.00
2023-02-26T11:07:54.884Z,65.50
2023-02-26T11:10:27.084Z,63.90
2023-02-26T11:12:54.138Z,66.80
2023-02-26T11:15:26.057Z,64.70
2023-02-26T11:18:01.731Z,65.40
2023-02-26T11:20:39.108Z,64.60
2023-02-26T11:23:12.911Z,64.70
2023-02-26T11:25:41.189Z,63.80
2023-02-26T11:28:30.132Z,62.60
2023-02-26T11:31:00.906Z,62.60
2023-02-26T11:33:34.814Z,61.70
2023-02-26T11:36:08.211Z,64.00
2023-02-26T11:38:36.451Z,63.20
2023-02-26T11:41:05.145Z,62.30
2023-02-26T11:43:44.870Z,61.60
2023-02-26T11:46:13.501Z,62.10
2023-02-26T11:48:50.926Z,62.80
2023-02-26T11:51:25.838Z,62.00
2023-02-26T11:54:01.651Z,62.30
2023-02-26T11:56:42.176Z,62.40
2023-02-26T11:59:19.908Z,61.50
2023-02-26T12:01:48.428Z,62.50
2023-02-26T12:04:21.886Z,60.50
2023-02-26T12:06:54.124Z,59.20
2023-02-26T12:09:22.289Z,60.80
2023-02-26T12:11:52.122Z,60.30
2023-02-26T12:14:34.349Z,61.00
2023-02-26T12:17:26.771Z,60.00
2023-02-26T12:20:21.607Z,59.60
2023-02-26T12:23:04.740Z,59.50
2023-02-26T12:25:37.831Z,59.30
2023-02-26T12:28:35.138Z,60.80
2023-02-26T12:31:20.358Z,59.50
2023-02-26T12:34:08.948Z,57.80
2023-02-26T12:36:56.152Z,57.80
2023-02-26T12:39:41.229Z,59.70
2023-02-26T12:42:32.056Z,58.20
2023-02-26T12:45:35.014Z,59.40
2023-02-26T12:48:26.687Z,57.10
2023-02-26T12:51:18.771Z,58.10
2023-02-26T12:54:14.126Z,57.50
2023-02-26T12:56:56.265Z,57.80
2023-02-26T12:59:51.165Z,57.90
2023-02-26T13:02:24.062Z,59.00
2023-02-26T13:05:18.617Z,58.50
2023-02-26T13:07:55.490Z,58.30
2023-02-26T13:10:32.490Z,58.70
2023-02-26T13:13:17.512Z,58.10
2023-02-26T13:15:59.543Z,58.10
2023-02-26T13:18:38.933Z,58.40
2023-02-26T13:21:34.613Z,59.10
2023-02-26T13:24:05.643Z,59.00
2023-02-26T13:26:36.573Z,58.90
2023-02-26T13:29:12.772Z,59.10
2023-02-26T13:31:46.160Z,59.80
2023-02-26T13:34:20.809Z,59.80
2023-02-26T13:36:49.281Z,60.70
2023-02-26T13:39:46.193Z,59.90
2023-02-26T13:42:34.970Z,58.30
2023-02-26T13:45:26.217Z,58.30
2023-02-26T13:48:09.601Z,57.90
2023-02-26T13:51:18.151Z,58.50
2023-02-26T13:54:05.531Z,58.00
2023-02-26T13:56:32.422Z,58.40
2023-02-26T13:59:05.188Z,59.40
2023-02-26T14:01:49.990Z,58.10
2023-02-26T14:04:23.300Z,57.60
2023-02-26T14:07:11.621Z,58.30
2023-02-26T14:09:55.418Z,58.10
2023-02-26T14:12:43.261Z,57.70
2023-02-26T14:15:13.256Z,56.90
2023-02-26T14:17:47.513Z,57.50
2023-02-26T14:20:25.269Z,58.40
2023-02-26T14:23:11.179Z,57.50
2023-02-26T14:25:47.981Z,58.50
2023-02-26T14:28:40.734Z,59.20
2023-02-26T14:31:22.615Z,57.70
2023-02-26T14:34:15.585Z,58.90
2023-02-26T14:36:59.003Z,58.40
2023-02-26T14:39:39.178Z,59.10
2023-02-26T14:42:12.121Z,58.70
2023-02-26T14:44:45.370Z,58.50
2023-02-26T14:47:13.333Z,58.40
2023-02-26T14:49:43.898Z,59.60
2023-02-26T14:52:44.339Z,57.80
2023-02-26T14:55:44.696Z,57.60
2023-02-26T14:58:27.811Z,58.00
2023-02-26T15:01:31.860Z,58.10
2023-02-26T15:04:02.244Z,57.60
2023-02-26T15:06:47.606Z,57.40
2023-02-26T15:09:32.122Z,57.00
2023-02-26T15:12:01.093Z,57.40
2023-02-26T15:15:12.844Z,58.50
2023-02-26T15:17:48.965Z,59.30
2023-02-26T15:20:44.126Z,58.90
2023-02-26T15:23:26.379Z,58.30
2023-02-26T15:25:53.862Z,58.80
2023-02-26T15:28:37.933Z,59.30
2023-02-26T15:31:08.651Z,57.80
2023-02-26T15:33:35.850Z,58.20
2023-02-26T15:36:13.524Z,58.50
2023-02-26T15:38:47.949Z,58.80
2023-02-26T15:41:16.213Z,58.30
2023-02-26T15:43:51.551Z,58.10
2023-02-26T15:46:21.809Z,58.30
2023-02-26T15:48:49.128Z,58.00
2023-02-26T15:51:19.405Z,57.70
2023-02-26T15:53:50.066Z,58.00
2023-02-26T15:56:36.774Z,58.00
2023-02-26T15:59:08.614Z,58.10
2023-02-26T16:01:36.878Z,58.20
2023-02-26T16:04:07.669Z,58.40
2023-02-26T16:06:41.490Z,58.00
